createdAt,value
2018-06-23T00:00:30.287Z,960.53
2018-06-23T00:01:30.276Z,960.59
2018-06-23T00:02:30.265Z,960.52
2018-06-23T00:03:30.256Z,960.56
2018-06-23T00:04:30.246Z,960.56
2018-06-23T00:05:30.237Z,960.56
2018-06-23T00:06:30.227Z,960.61
2018-06-23T00:07:30.215Z,960.58
2018-06-23T00:08:30.204Z,960.58
2018-06-23T00:09:30.197Z,960.58
2018-06-23T00:10:30.185Z,960.57
2018-06-23T00:11:30.175Z,960.64
2018-06-23T00:12:30.165Z,960.61
2018-06-23T00:13:30.157Z,960.62
2018-06-23T00:14:30.148Z,960.61
2018-06-23T00:15:30.134Z,960.62
2018-06-23T00:16:30.124Z,960.63
2018-06-23T00:17:30.116Z,960.63
2018-06-23T00:18:30.105Z,960.61
2018-06-23T00:19:30.092Z,960.57
2018-06-23T00:20:30.082Z,960.62
2018-06-23T00:21:30.072Z,960.58
2018-06-23T00:22:30.068Z,960.62
2018-06-23T00:23:30.052Z,960.56
2018-06-23T00:24:30.047Z,960.61
2018-06-23T00:25:30.031Z,960.62
2018-06-23T00:26:30.022Z,960.62
2018-06-23T00:27:30.011Z,960.61
2018-06-23T00:28:30.000Z,960.55
2018-06-23T00:29:29.990Z,960.62
2018-06-23T00:30:29.979Z,960.54
2018-06-23T00:31:29.968Z,960.53
2018-06-23T00:32:29.957Z,960.53
2018-06-23T00:33:29.950Z,960.54
2018-06-23T00:34:29.937Z,960.53
2018-06-23T00:35:29.926Z,960.56
2018-06-23T00:36:29.916Z,960.55
2018-06-23T00:37:29.908Z,960.5
2018-06-23T00:38:29.897Z,960.5
2018-06-23T00:39:29.886Z,960.54
2018-06-23T00:40:29.877Z,960.49
2018-06-23T00:41:29.865Z,960.53
2018-06-23T00:42:29.854Z,960.56
2018-06-23T00:43:29.844Z,960.54
2018-06-23T00:44:29.834Z,960.57
2018-06-23T00:45:29.825Z,960.5
2018-06-23T00:46:29.812Z,960.5
2018-06-23T00:47:29.802Z,960.51
2018-06-23T00:48:29.792Z,960.49
2018-06-23T00:49:29.781Z,960.49
2018-06-23T00:50:29.769Z,960.52
2018-06-23T00:51:29.760Z,960.48
2018-06-23T00:52:29.750Z,960.57
2018-06-23T00:53:29.743Z,960.52
2018-06-23T00:54:29.729Z,960.52
2018-06-23T00:55:29.719Z,960.54
2018-06-23T00:56:29.710Z,960.52
2018-06-23T00:57:29.696Z,960.51
2018-06-23T00:58:29.687Z,960.51
2018-06-23T00:59:29.676Z,960.47
2018-06-23T01:00:29.669Z,960.5
2018-06-23T01:01:29.655Z,960.49
2018-06-23T01:02:29.645Z,960.49
2018-06-23T01:03:29.637Z,960.5
2018-06-23T01:04:29.625Z,960.49
2018-06-23T01:05:29.612Z,960.47
2018-06-23T01:06:29.602Z,960.42
2018-06-23T01:07:29.593Z,960.45
2018-06-23T01:08:29.580Z,960.45
2018-06-23T01:09:29.570Z,960.49
2018-06-23T01:10:29.560Z,960.45
2018-06-23T01:11:29.550Z,960.46
2018-06-23T01:12:29.539Z,960.43
2018-06-23T01:13:29.528Z,960.49
2018-06-23T01:14:29.517Z,960.46
2018-06-23T01:15:29.507Z,960.43
2018-06-23T01:16:29.496Z,960.47
2018-06-23T01:17:29.491Z,960.47
2018-06-23T01:18:29.484Z,960.48
2018-06-23T01:19:29.462Z,960.52
2018-06-23T01:20:29.453Z,960.5
2018-06-23T01:21:29.444Z,960.46
2018-06-23T01:22:29.431Z,960.46
2018-06-23T01:23:29.421Z,960.48
2018-06-23T01:24:29.411Z,960.47
2018-06-23T01:25:29.402Z,960.45
2018-06-23T01:26:29.388Z,960.42
2018-06-23T01:27:29.377Z,960.42
2018-06-23T01:28:29.425Z,960.43
2018-06-23T01:29:29.357Z,960.44
2018-06-23T01:30:29.345Z,960.42
2018-06-23T01:31:29.333Z,960.39
2018-06-23T01:32:29.324Z,960.48
2018-06-23T01:33:29.311Z,960.42
2018-06-23T01:34:29.302Z,960.43
2018-06-23T01:35:29.289Z,960.41
2018-06-23T01:36:29.279Z,960.43
2018-06-23T01:37:29.271Z,960.43
2018-06-23T01:38:29.415Z,960.42
2018-06-23T01:39:29.248Z,960.41
2018-06-23T01:40:29.235Z,960.46
2018-06-23T01:41:29.222Z,960.51
2018-06-23T01:42:29.212Z,960.48
2018-06-23T01:43:29.200Z,960.48
2018-06-23T01:44:29.189Z,960.49
2018-06-23T01:45:29.178Z,960.47
2018-06-23T01:46:29.167Z,960.45
2018-06-23T01:47:29.158Z,960.49
2018-06-23T01:48:29.145Z,960.49
2018-06-23T01:49:29.134Z,960.53
2018-06-23T01:50:29.123Z,960.52
2018-06-23T01:51:29.114Z,960.48
2018-06-23T01:52:29.100Z,960.44
2018-06-23T01:53:29.090Z,960.44
2018-06-23T01:54:29.079Z,960.48
2018-06-23T01:55:29.068Z,960.47
2018-06-23T01:56:29.057Z,960.47
2018-06-23T01:57:29.046Z,960.43
2018-06-23T01:58:29.036Z,960.42
2018-06-23T01:59:29.023Z,960.37
2018-06-23T02:00:29.012Z,960.42
2018-06-23T02:01:29.002Z,960.4
2018-06-23T02:02:28.991Z,960.4
2018-06-23T02:03:28.980Z,960.42
2018-06-23T02:04:28.974Z,960.41
2018-06-23T02:05:28.960Z,960.41
2018-06-23T02:06:28.948Z,960.39
2018-06-23T02:07:28.940Z,960.41
2018-06-23T02:08:28.926Z,960.45
2018-06-23T02:09:28.916Z,960.41
2018-06-23T02:10:28.904Z,960.41
2018-06-23T02:11:28.893Z,960.37
2018-06-23T02:12:28.883Z,960.34
2018-06-23T02:13:28.873Z,960.36
2018-06-23T02:14:28.863Z,960.37
2018-06-23T02:15:28.852Z,960.41
2018-06-23T02:16:28.841Z,960.38
2018-06-23T02:17:28.830Z,960.41
2018-06-23T02:18:28.819Z,960.38
2018-06-23T02:19:28.845Z,960.38
2018-06-23T02:20:28.796Z,960.35
2018-06-23T02:21:28.786Z,960.35
2018-06-23T02:22:28.776Z,960.37
2018-06-23T02:23:28.765Z,960.36
2018-06-23T02:24:28.763Z,960.41
2018-06-23T02:25:28.743Z,960.4
2018-06-23T02:26:28.733Z,960.34
2018-06-23T02:27:28.722Z,960.35
2018-06-23T02:28:28.711Z,960.34
2018-06-23T02:29:28.701Z,960.31
2018-06-23T02:30:28.692Z,960.33
2018-06-23T02:31:28.680Z,960.33
2018-06-23T02:32:28.670Z,960.39
2018-06-23T02:33:28.658Z,960.33
2018-06-23T02:34:28.648Z,960.38
2018-06-23T02:35:28.638Z,960.41
2018-06-23T02:36:28.626Z,960.41
2018-06-23T02:37:28.615Z,960.39
2018-06-23T02:38:28.606Z,960.39
2018-06-23T02:39:28.594Z,960.42
2018-06-23T02:40:28.583Z,960.39
2018-06-23T02:41:28.572Z,960.42
2018-06-23T02:42:28.563Z,960.38
2018-06-23T02:43:28.551Z,960.38
2018-06-23T02:44:28.539Z,960.39
2018-06-23T02:45:28.530Z,960.43
2018-06-23T02:46:28.519Z,960.42
2018-06-23T02:47:28.509Z,960.4
2018-06-23T02:48:28.497Z,960.37
2018-06-23T02:49:28.488Z,960.4
2018-06-23T02:50:28.475Z,960.41
2018-06-23T02:51:28.474Z,960.43
2018-06-23T02:52:28.454Z,960.41
2018-06-23T02:53:28.444Z,960.4
2018-06-23T02:54:28.432Z,960.42
2018-06-23T02:55:28.422Z,960.44
2018-06-23T02:56:28.411Z,960.46
2018-06-23T02:57:28.401Z,960.46
2018-06-23T02:58:28.389Z,960.42
2018-06-23T02:59:28.378Z,960.4
2018-06-23T03:00:28.369Z,960.45
2018-06-23T03:01:28.357Z,960.42
2018-06-23T03:02:28.377Z,960.42
2018-06-23T03:03:28.337Z,960.42
2018-06-23T03:04:28.326Z,960.41
2018-06-23T03:05:28.315Z,960.4
2018-06-23T03:06:28.304Z,960.4
2018-06-23T03:07:28.292Z,960.41
2018-06-23T03:08:28.282Z,960.38
2018-06-23T03:09:28.269Z,960.4
2018-06-23T03:10:28.260Z,960.37
2018-06-23T03:11:28.257Z,960.45
2018-06-23T03:12:28.237Z,960.39
2018-06-23T03:13:28.234Z,960.4
2018-06-23T03:14:28.216Z,960.4
2018-06-23T03:15:28.210Z,960.44
2018-06-23T03:16:28.198Z,960.44
2018-06-23T03:17:28.182Z,960.44
2018-06-23T03:18:28.172Z,960.45
2018-06-23T03:19:28.159Z,960.42
2018-06-23T03:20:28.148Z,960.43
2018-06-23T03:21:28.136Z,960.44
2018-06-23T03:22:28.126Z,960.45
2018-06-23T03:23:28.114Z,960.41
2018-06-23T03:24:28.102Z,960.44
2018-06-23T03:25:28.093Z,960.42
2018-06-23T03:26:28.082Z,960.41
2018-06-23T03:27:28.068Z,960.44
2018-06-23T03:28:28.059Z,960.43
2018-06-23T03:29:28.049Z,960.4
2018-06-23T03:30:28.037Z,960.42
2018-06-23T03:31:28.026Z,960.42
2018-06-23T03:32:28.015Z,960.44
2018-06-23T03:33:28.002Z,960.44
2018-06-23T03:34:27.991Z,960.4
2018-06-23T03:35:27.979Z,960.39
2018-06-23T03:36:27.970Z,960.41
2018-06-23T03:37:27.959Z,960.34
2018-06-23T03:38:27.947Z,960.36
2018-06-23T03:39:27.935Z,960.37
2018-06-23T03:40:27.926Z,960.37
2018-06-23T03:41:27.913Z,960.36
2018-06-23T03:42:27.902Z,960.34
2018-06-23T03:43:27.891Z,960.33
2018-06-23T03:44:27.879Z,960.34
2018-06-23T03:45:27.872Z,960.32
2018-06-23T03:46:27.859Z,960.3
2018-06-23T03:47:27.848Z,960.27
2018-06-23T03:48:27.838Z,960.31
2018-06-23T03:49:27.825Z,960.28
2018-06-23T03:50:27.816Z,960.31
2018-06-23T03:51:27.803Z,960.28
2018-06-23T03:52:27.791Z,960.31
2018-06-23T03:53:27.780Z,960.32
2018-06-23T03:54:27.768Z,960.32
2018-06-23T03:55:27.759Z,960.36
2018-06-23T03:56:27.747Z,960.3
2018-06-23T03:57:27.738Z,960.31
2018-06-23T03:58:27.726Z,960.34
2018-06-23T03:59:27.715Z,960.34
2018-06-23T04:00:27.702Z,960.29
2018-06-23T04:01:27.693Z,960.31
2018-06-23T04:02:27.683Z,960.34
2018-06-23T04:03:27.670Z,960.32
2018-06-23T04:04:27.662Z,960.34
2018-06-23T04:05:27.649Z,960.34
2018-06-23T04:06:27.642Z,960.34
2018-06-23T04:07:27.628Z,960.26
2018-06-23T04:08:27.616Z,960.3
2018-06-23T04:09:27.605Z,960.32
2018-06-23T04:10:27.595Z,960.28
2018-06-23T04:11:27.628Z,960.27
2018-06-23T04:12:27.573Z,960.31
2018-06-23T04:13:27.562Z,960.25
2018-06-23T04:14:27.551Z,960.26
2018-06-23T04:15:27.541Z,960.31
2018-06-23T04:16:27.531Z,960.3
2018-06-23T04:17:27.519Z,960.3
2018-06-23T04:18:27.508Z,960.32
2018-06-23T04:19:27.497Z,960.29
2018-06-23T04:20:27.487Z,960.3
2018-06-23T04:21:27.476Z,960.29
2018-06-23T04:22:27.465Z,960.29
2018-06-23T04:23:27.454Z,960.3
2018-06-23T04:24:27.444Z,960.28
2018-06-23T04:25:27.432Z,960.3
2018-06-23T04:26:27.422Z,960.28
2018-06-23T04:27:27.411Z,960.3
2018-06-23T04:28:27.406Z,960.29
2018-06-23T04:29:27.390Z,960.25
2018-06-23T04:30:27.380Z,960.23
2018-06-23T04:31:27.368Z,960.24
2018-06-23T04:32:27.359Z,960.24
2018-06-23T04:33:27.347Z,960.29
2018-06-23T04:34:27.338Z,960.28
2018-06-23T04:35:27.327Z,960.3
2018-06-23T04:36:27.319Z,960.27
2018-06-23T04:37:27.312Z,960.3
2018-06-23T04:38:27.348Z,960.3
2018-06-23T04:39:27.285Z,960.28
2018-06-23T04:40:27.272Z,960.32
2018-06-23T04:41:27.263Z,960.3
2018-06-23T04:42:27.254Z,960.33
2018-06-23T04:43:27.241Z,960.26
2018-06-23T04:44:27.231Z,960.32
2018-06-23T04:45:27.221Z,960.34
2018-06-23T04:46:27.211Z,960.31
2018-06-23T04:47:27.203Z,960.3
2018-06-23T04:48:27.189Z,960.32
2018-06-23T04:49:27.179Z,960.32
2018-06-23T04:50:27.169Z,960.29
2018-06-23T04:51:27.159Z,960.3
2018-06-23T04:52:27.146Z,960.32
2018-06-23T04:53:27.182Z,960.3
2018-06-23T04:54:27.125Z,960.29
2018-06-23T04:55:27.115Z,960.31
2018-06-23T04:56:27.104Z,960.33
2018-06-23T04:57:27.101Z,960.3
2018-06-23T04:58:27.083Z,960.29
2018-06-23T04:59:27.089Z,960.32
2018-06-23T05:00:27.099Z,960.27
2018-06-23T05:01:27.054Z,960.28
2018-06-23T05:02:27.042Z,960.31
2018-06-23T05:03:27.031Z,960.3
2018-06-23T05:04:27.022Z,960.27
2018-06-23T05:05:27.011Z,960.27
2018-06-23T05:06:26.999Z,960.29
2018-06-23T05:07:26.993Z,960.31
2018-06-23T05:08:26.980Z,960.3
2018-06-23T05:09:26.973Z,960.29
2018-06-23T05:10:26.958Z,960.29
2018-06-23T05:11:26.946Z,960.29
2018-06-23T05:12:26.996Z,960.26
2018-06-23T05:13:26.926Z,960.24
2018-06-23T05:14:26.914Z,960.26
2018-06-23T05:15:26.904Z,960.21
2018-06-23T05:16:26.892Z,960.24
2018-06-23T05:17:26.881Z,960.24
2018-06-23T05:18:26.872Z,960.21
2018-06-23T05:19:26.865Z,960.31
2018-06-23T05:20:26.859Z,960.31
2018-06-23T05:21:26.840Z,960.31
2018-06-23T05:22:26.834Z,960.31
2018-06-23T05:23:26.821Z,960.34
2018-06-23T05:24:26.810Z,960.32
2018-06-23T05:25:26.799Z,960.27
2018-06-23T05:26:26.790Z,960.29
2018-06-23T05:27:26.782Z,960.3
2018-06-23T05:28:26.768Z,960.35
2018-06-23T05:29:26.771Z,960.33
2018-06-23T05:30:26.747Z,960.33
2018-06-23T05:31:26.737Z,960.3
2018-06-23T05:32:26.730Z,960.33
2018-06-23T05:33:26.719Z,960.35
2018-06-23T05:34:26.706Z,960.33
2018-06-23T05:35:26.694Z,960.33
2018-06-23T05:36:26.685Z,960.32
2018-06-23T05:37:26.674Z,960.35
2018-06-23T05:38:26.662Z,960.34
2018-06-23T05:39:26.653Z,960.33
2018-06-23T05:40:26.644Z,960.36
2018-06-23T05:41:26.633Z,960.34
2018-06-23T05:42:26.622Z,960.36
2018-06-23T05:43:26.611Z,960.34
2018-06-23T05:44:26.601Z,960.35
2018-06-23T05:45:26.593Z,960.37
2018-06-23T05:46:26.580Z,960.37
2018-06-23T05:47:26.571Z,960.37
2018-06-23T05:48:26.561Z,960.36
2018-06-23T05:49:26.549Z,960.43
2018-06-23T05:50:26.540Z,960.38
2018-06-23T05:51:26.529Z,960.39
2018-06-23T05:52:26.522Z,960.41
2018-06-23T05:53:26.510Z,960.35
2018-06-23T05:54:26.499Z,960.39
2018-06-23T05:55:26.490Z,960.38
2018-06-23T05:56:26.480Z,960.33
2018-06-23T05:57:26.469Z,960.33
2018-06-23T05:58:26.460Z,960.35
2018-06-23T05:59:26.451Z,960.36
2018-06-23T06:00:26.442Z,960.36
2018-06-23T06:01:26.431Z,960.37
2018-06-23T06:02:26.422Z,960.37
2018-06-23T06:03:26.412Z,960.43
2018-06-23T06:04:26.402Z,960.37
2018-06-23T06:05:26.392Z,960.35
2018-06-23T06:06:26.383Z,960.34
2018-06-23T06:07:26.376Z,960.31
2018-06-23T06:08:26.365Z,960.38
2018-06-23T06:09:26.355Z,960.37
2018-06-23T06:10:26.345Z,960.35
2018-06-23T06:11:26.335Z,960.42
2018-06-23T06:12:26.325Z,960.4
2018-06-23T06:13:26.317Z,960.41
2018-06-23T06:14:26.307Z,960.4
2018-06-23T06:15:26.298Z,960.41
2018-06-23T06:16:26.290Z,960.37
2018-06-23T06:17:26.282Z,960.42
2018-06-23T06:18:26.270Z,960.45
2018-06-23T06:19:26.261Z,960.44
2018-06-23T06:20:26.252Z,960.44
2018-06-23T06:21:26.243Z,960.44
2018-06-23T06:22:26.233Z,960.41
2018-06-23T06:23:26.225Z,960.41
2018-06-23T06:24:26.216Z,960.36
2018-06-23T06:25:26.206Z,960.33
2018-06-23T06:26:26.197Z,960.37
2018-06-23T06:27:26.187Z,960.38
2018-06-23T06:28:26.182Z,960.39
2018-06-23T06:29:26.182Z,960.36
2018-06-23T06:30:26.160Z,960.38
2018-06-23T06:31:26.152Z,960.38
2018-06-23T06:32:26.142Z,960.41
2018-06-23T06:33:26.134Z,960.38
2018-06-23T06:34:26.125Z,960.38
2018-06-23T06:35:26.116Z,960.39
2018-06-23T06:36:26.109Z,960.38
2018-06-23T06:37:26.099Z,960.4
2018-06-23T06:38:26.093Z,960.36
2018-06-23T06:39:26.082Z,960.35
2018-06-23T06:40:26.075Z,960.38
2018-06-23T06:41:26.065Z,960.39
2018-06-23T06:42:26.057Z,960.31
2018-06-23T06:43:26.145Z,960.31
2018-06-23T06:44:26.040Z,960.31
2018-06-23T06:45:26.030Z,960.27
2018-06-23T06:46:26.026Z,960.3
2018-06-23T06:47:26.018Z,960.28
2018-06-23T06:48:26.008Z,960.29
2018-06-23T06:49:25.998Z,960.31
2018-06-23T06:50:25.990Z,960.32
2018-06-23T06:51:25.984Z,960.33
2018-06-23T06:52:25.976Z,960.34
2018-06-23T06:53:25.967Z,960.36
2018-06-23T06:54:25.961Z,960.36
2018-06-23T06:55:25.952Z,960.34
2018-06-23T06:56:25.946Z,960.31
2018-06-23T06:57:25.944Z,960.23
2018-06-23T06:58:25.931Z,960.27
2018-06-23T06:59:25.923Z,960.23
2018-06-23T07:00:25.916Z,960.26
2018-06-23T07:01:25.906Z,960.26
2018-06-23T07:02:25.958Z,960.19
2018-06-23T07:03:25.911Z,960.17
2018-06-23T07:04:25.885Z,960.18
2018-06-23T07:05:25.878Z,960.2
2018-06-23T07:06:25.875Z,960.22
2018-06-23T07:07:25.863Z,960.22
2018-06-23T07:08:25.862Z,960.24
2018-06-23T07:09:25.849Z,960.25
2018-06-23T07:10:25.841Z,960.27
2018-06-23T07:11:25.835Z,960.35
2018-06-23T07:12:25.829Z,960.29
2018-06-23T07:13:25.827Z,960.34
2018-06-23T07:14:25.812Z,960.34
2018-06-23T07:15:25.823Z,960.25
2018-06-23T07:16:25.800Z,960.27
2018-06-23T07:17:25.795Z,960.3
2018-06-23T07:18:25.785Z,960.24
2018-06-23T07:19:25.780Z,960.23
2018-06-23T07:20:25.772Z,960.24
2018-06-23T07:21:25.765Z,960.22
2018-06-23T07:22:25.757Z,960.26
2018-06-23T07:23:25.775Z,960.25
2018-06-23T07:24:25.745Z,960.27
2018-06-23T07:25:25.739Z,960.26
2018-06-23T07:26:25.732Z,960.25
2018-06-23T07:27:25.726Z,960.19
2018-06-23T07:28:25.718Z,960.21
2018-06-23T07:29:25.712Z,960.25
2018-06-23T07:30:25.706Z,960.24
2018-06-23T07:31:25.711Z,960.26
2018-06-23T07:32:25.692Z,960.2
2018-06-23T07:33:25.687Z,960.26
2018-06-23T07:34:25.774Z,960.33
2018-06-23T07:35:25.676Z,960.28
2018-06-23T07:36:25.671Z,960.24
2018-06-23T07:37:25.666Z,960.25
2018-06-23T07:38:25.663Z,960.23
2018-06-23T07:39:25.652Z,960.23
2018-06-23T07:40:25.649Z,960.25
2018-06-23T07:41:25.651Z,960.24
2018-06-23T07:42:25.638Z,960.23
2018-06-23T07:43:25.634Z,960.26
2018-06-23T07:44:25.627Z,960.27
2018-06-23T07:45:25.623Z,960.28
2018-06-23T07:46:25.617Z,960.31
2018-06-23T07:47:25.612Z,960.26
2018-06-23T07:48:25.607Z,960.26
2018-06-23T07:49:25.602Z,960.28
2018-06-23T07:52:48.827Z,960.27
2018-06-23T07:53:48.823Z,960.26
2018-06-23T07:54:48.817Z,960.27
2018-06-23T07:55:48.813Z,960.25
2018-06-23T07:56:48.807Z,960.29
2018-06-23T07:57:48.803Z,960.23
2018-06-23T07:58:48.796Z,960.29
2018-06-23T07:59:48.793Z,960.3
2018-06-23T08:00:48.787Z,960.34
2018-06-23T08:01:48.785Z,960.31
2018-06-23T08:02:48.776Z,960.29
2018-06-23T08:03:48.770Z,960.35
2018-06-23T08:04:48.766Z,960.31
2018-06-23T08:05:48.760Z,960.32
2018-06-23T08:06:48.757Z,960.34
2018-06-23T08:07:48.751Z,960.33
2018-06-23T08:08:48.745Z,960.27
2018-06-23T08:09:48.744Z,960.25
2018-06-23T08:10:48.733Z,960.3
2018-06-23T08:11:48.803Z,960.35
2018-06-23T08:12:48.721Z,960.31
2018-06-23T08:13:48.717Z,960.28
2018-06-23T08:14:48.711Z,960.3
2018-06-23T08:15:48.706Z,960.21
2018-06-23T08:16:48.700Z,960.21
2018-06-23T08:17:48.693Z,960.19
2018-06-23T08:18:48.687Z,960.22
2018-06-23T08:19:48.685Z,960.27
2018-06-23T08:20:48.684Z,960.27
2018-06-23T08:21:48.669Z,960.25
2018-06-23T08:22:48.662Z,960.24
2018-06-23T08:23:48.656Z,960.27
2018-06-23T08:24:48.648Z,960.28
2018-06-23T08:25:48.644Z,960.28
2018-06-23T08:26:48.636Z,960.25
2018-06-23T08:27:48.635Z,960.24
2018-06-23T08:28:48.623Z,960.27
2018-06-23T08:29:48.622Z,960.29
2018-06-23T08:30:48.610Z,960.25
2018-06-23T08:31:48.664Z,960.31
2018-06-23T08:32:48.599Z,960.34
2018-06-23T08:33:48.595Z,960.33
2018-06-23T08:34:48.581Z,960.35
2018-06-23T08:35:48.575Z,960.32
2018-06-23T08:36:48.569Z,960.36
2018-06-23T08:37:48.611Z,960.38
2018-06-23T08:38:48.554Z,960.38
2018-06-23T08:39:48.549Z,960.42
2018-06-23T08:40:48.545Z,960.4
2018-06-23T08:41:48.536Z,960.39
2018-06-23T08:42:48.529Z,960.37
2018-06-23T08:43:48.599Z,960.32
2018-06-23T08:44:48.516Z,960.37
2018-06-23T08:45:48.510Z,960.37
2018-06-23T08:46:48.501Z,960.35
2018-06-23T08:47:48.496Z,960.34
2018-06-23T08:48:48.489Z,960.37
2018-06-23T08:49:48.482Z,960.39
2018-06-23T08:50:48.473Z,960.39
2018-06-23T08:51:48.469Z,960.39
2018-06-23T08:52:48.460Z,960.39
2018-06-23T08:53:48.454Z,960.37
2018-06-23T08:54:48.446Z,960.35
2018-06-23T08:55:48.442Z,960.32
2018-06-23T08:56:48.435Z,960.3
2018-06-23T08:57:48.426Z,960.35
2018-06-23T08:58:48.420Z,960.34
2018-06-23T08:59:48.412Z,960.33
2018-06-23T09:00:48.405Z,960.33
2018-06-23T09:01:48.421Z,960.29
2018-06-23T09:02:48.469Z,960.28
2018-06-23T09:03:48.390Z,960.32
2018-06-23T09:04:48.379Z,960.33
2018-06-23T09:05:48.372Z,960.33
2018-06-23T09:06:48.365Z,960.33
2018-06-23T09:07:48.358Z,960.36
2018-06-23T09:08:48.352Z,960.32
2018-06-23T09:09:48.344Z,960.32
2018-06-23T09:10:48.338Z,960.31
2018-06-23T09:11:48.330Z,960.35
2018-06-23T09:12:48.323Z,960.35
2018-06-23T09:13:48.315Z,960.37
2018-06-23T09:14:48.311Z,960.38
2018-06-23T09:15:48.300Z,960.41
2018-06-23T09:16:48.364Z,960.38
2018-06-23T09:17:48.288Z,960.4
2018-06-23T09:18:48.279Z,960.45
2018-06-23T09:19:48.276Z,960.4
2018-06-23T09:20:48.266Z,960.44
2018-06-23T09:21:48.259Z,960.41
2018-06-23T09:22:48.251Z,960.44
2018-06-23T09:23:48.243Z,960.42
2018-06-23T09:24:48.237Z,960.45
2018-06-23T09:25:48.237Z,960.47
2018-06-23T09:26:48.220Z,960.47
2018-06-23T09:27:48.213Z,960.44
2018-06-23T09:28:48.203Z,960.46
2018-06-23T09:29:48.197Z,960.41
2018-06-23T09:30:48.189Z,960.41
2018-06-23T09:31:48.182Z,960.44
2018-06-23T09:32:48.176Z,960.41
2018-06-23T09:33:48.166Z,960.45
2018-06-23T09:34:48.159Z,960.39
2018-06-23T09:35:48.151Z,960.42
2018-06-23T09:36:48.143Z,960.4
2018-06-23T09:37:48.133Z,960.38
2018-06-23T09:38:48.129Z,960.38
2018-06-23T09:39:48.120Z,960.34
2018-06-23T09:40:48.111Z,960.37
2018-06-23T09:41:48.107Z,960.36
2018-06-23T09:42:48.096Z,960.38
2018-06-23T09:43:48.091Z,960.41
2018-06-23T09:44:48.083Z,960.41
2018-06-23T09:45:48.142Z,960.39
2018-06-23T09:46:48.067Z,960.39
2018-06-23T09:47:48.056Z,960.38
2018-06-23T09:48:48.051Z,960.4
2018-06-23T09:49:48.042Z,960.43
2018-06-23T09:50:48.035Z,960.45
2018-06-23T09:51:48.025Z,960.45
2018-06-23T09:52:48.054Z,960.45
2018-06-23T09:53:48.010Z,960.46
2018-06-23T09:54:48.005Z,960.47
2018-06-23T09:55:48.001Z,960.47
2018-06-23T09:56:47.986Z,960.5
2018-06-23T09:57:47.979Z,960.5
2018-06-23T09:58:47.973Z,960.46
2018-06-23T09:59:47.964Z,960.5
2018-06-23T10:00:47.955Z,960.54
2018-06-23T10:01:47.947Z,960.49
2018-06-23T10:02:47.942Z,960.49
2018-06-23T10:03:47.930Z,960.49
2018-06-23T10:04:47.923Z,960.5
2018-06-23T10:05:47.917Z,960.45
2018-06-23T10:06:47.907Z,960.45
2018-06-23T10:07:47.900Z,960.48
2018-06-23T10:08:47.896Z,960.49
2018-06-23T10:09:47.884Z,960.52
2018-06-23T10:10:47.876Z,960.55
2018-06-23T10:11:47.869Z,960.51
2018-06-23T10:12:47.861Z,960.51
2018-06-23T10:13:47.851Z,960.49
2018-06-23T10:14:47.843Z,960.54
2018-06-23T10:15:47.839Z,960.52
2018-06-23T10:16:47.827Z,960.52
2018-06-23T10:17:47.817Z,960.52
2018-06-23T10:18:47.811Z,960.5
2018-06-23T10:19:47.801Z,960.54
2018-06-23T10:20:47.792Z,960.57
2018-06-23T10:21:47.784Z,960.51
2018-06-23T10:22:47.776Z,960.5
2018-06-23T10:23:47.768Z,960.45
2018-06-23T10:24:47.758Z,960.51
2018-06-23T10:25:47.749Z,960.48
2018-06-23T10:26:47.742Z,960.5
2018-06-23T10:27:47.733Z,960.47
2018-06-23T10:28:47.724Z,960.49
2018-06-23T10:29:47.714Z,960.48
2018-06-23T10:30:47.707Z,960.48
2018-06-23T10:31:47.701Z,960.47
2018-06-23T10:32:47.690Z,960.46
2018-06-23T10:33:47.681Z,960.48
2018-06-23T10:34:47.671Z,960.45
2018-06-23T10:35:47.664Z,960.45
2018-06-23T10:36:47.653Z,960.51
2018-06-23T10:37:47.651Z,960.47
2018-06-23T10:38:47.709Z,960.5
2018-06-23T10:39:47.630Z,960.49
2018-06-23T10:40:47.624Z,960.5
2018-06-23T10:41:47.614Z,960.52
2018-06-23T10:42:47.605Z,960.48
2018-06-23T10:43:47.594Z,960.5
2018-06-23T10:44:47.588Z,960.5
2018-06-23T10:45:47.580Z,960.46
2018-06-23T10:46:47.570Z,960.45
2018-06-23T10:47:47.562Z,960.48
2018-06-23T10:48:47.552Z,960.5
2018-06-23T10:49:47.544Z,960.47
2018-06-23T10:50:47.536Z,960.45
2018-06-23T10:51:47.536Z,960.45
2018-06-23T10:52:47.519Z,960.47
2018-06-23T10:53:47.509Z,960.48
2018-06-23T10:54:47.506Z,960.42
2018-06-23T10:55:47.493Z,960.47
2018-06-23T10:56:47.485Z,960.45
2018-06-23T10:57:47.478Z,960.42
2018-06-23T10:58:47.467Z,960.46
2018-06-23T10:59:47.459Z,960.45
2018-06-23T11:00:47.448Z,960.45
2018-06-23T11:01:47.445Z,960.42
2018-06-23T11:02:47.433Z,960.4
2018-06-23T11:03:47.423Z,960.45
2018-06-23T11:04:47.505Z,960.42
2018-06-23T11:05:47.404Z,960.42
2018-06-23T11:06:47.399Z,960.4
2018-06-23T11:07:47.385Z,960.42
2018-06-23T11:08:47.379Z,960.45
2018-06-23T11:09:47.366Z,960.48
2018-06-23T11:10:47.359Z,960.45
2018-06-23T11:11:47.349Z,960.42
2018-06-23T11:12:47.341Z,960.45
2018-06-23T11:13:47.333Z,960.45
2018-06-23T11:14:47.323Z,960.48
2018-06-23T11:15:47.314Z,960.48
2018-06-23T11:16:47.313Z,960.44
2018-06-23T11:17:47.297Z,960.43
2018-06-23T11:18:47.293Z,960.45
2018-06-23T11:19:47.282Z,960.48
2018-06-23T11:20:47.268Z,960.48
2018-06-23T11:21:47.260Z,960.46
2018-06-23T11:22:47.252Z,960.45
2018-06-23T11:23:47.241Z,960.51
2018-06-23T11:24:47.234Z,960.45
2018-06-23T11:25:47.223Z,960.45
2018-06-23T11:26:47.215Z,960.44
2018-06-23T11:27:47.204Z,960.46
2018-06-23T11:28:47.197Z,960.44
2018-06-23T11:29:47.187Z,960.43
2018-06-23T11:30:47.176Z,960.45
2018-06-23T11:31:47.169Z,960.48
2018-06-23T11:32:47.160Z,960.53
2018-06-23T11:33:47.150Z,960.43
2018-06-23T11:34:47.139Z,960.46
2018-06-23T11:35:47.130Z,960.44
2018-06-23T11:36:47.122Z,960.44
2018-06-23T11:37:47.115Z,960.42
2018-06-23T11:38:47.103Z,960.39
2018-06-23T11:39:47.094Z,960.45
2018-06-23T11:40:47.085Z,960.42
2018-06-23T11:41:47.076Z,960.41
2018-06-23T11:42:47.073Z,960.43
2018-06-23T11:43:47.057Z,960.49
2018-06-23T11:44:47.046Z,960.44
2018-06-23T11:45:47.042Z,960.4
2018-06-23T11:46:47.029Z,960.4
2018-06-23T11:47:47.021Z,960.41
2018-06-23T11:48:47.013Z,960.43
2018-06-23T11:49:47.004Z,960.42
2018-06-23T11:50:46.998Z,960.39
2018-06-23T11:51:46.985Z,960.42
2018-06-23T11:52:46.977Z,960.41
2018-06-23T11:53:46.967Z,960.42
2018-06-23T11:54:46.959Z,960.42
2018-06-23T11:55:46.948Z,960.42
2018-06-23T11:56:46.940Z,960.4
2018-06-23T11:57:46.931Z,960.4
2018-06-23T11:58:46.922Z,960.39
2018-06-23T11:59:46.914Z,960.42
2018-06-23T12:00:46.911Z,960.41
2018-06-23T12:01:46.900Z,960.42
2018-06-23T12:02:46.886Z,960.37
2018-06-23T12:03:46.877Z,960.32
2018-06-23T12:04:46.868Z,960.37
2018-06-23T12:05:46.860Z,960.37
2018-06-23T12:06:46.851Z,960.32
2018-06-23T12:07:46.842Z,960.37
2018-06-23T12:08:46.832Z,960.35
2018-06-23T12:09:46.824Z,960.36
2018-06-23T12:10:46.814Z,960.33
2018-06-23T12:11:46.807Z,960.37
2018-06-23T12:12:46.796Z,960.33
2018-06-23T12:13:46.789Z,960.36
2018-06-23T12:14:46.785Z,960.35
2018-06-23T12:15:46.773Z,960.38
2018-06-23T12:16:46.763Z,960.37
2018-06-23T12:18:46.745Z,960.36
2018-06-23T12:19:46.737Z,960.4
2018-06-23T12:20:46.727Z,960.35
2018-06-23T12:21:46.719Z,960.34
2018-06-23T12:22:46.711Z,960.33
2018-06-23T12:23:46.704Z,960.32
2018-06-23T12:24:46.693Z,960.34
2018-06-23T12:25:46.686Z,960.31
2018-06-23T12:26:46.674Z,960.32
2018-06-23T12:27:46.666Z,960.31
2018-06-23T12:28:46.657Z,960.29
2018-06-23T12:29:46.651Z,960.33
2018-06-23T12:30:46.641Z,960.3
2018-06-23T12:31:46.639Z,960.36
2018-06-23T12:32:46.623Z,960.31
2018-06-23T12:33:46.617Z,960.31